createdAt,value
2023-03-04T00:01:46.718Z,98730.97
2023-03-04T00:03:51.303Z,98733.59
2023-03-04T00:05:56.138Z,98738.69
2023-03-04T00:08:03.657Z,98730.16
2023-03-04T00:10:09.909Z,98724.16
2023-03-04T00:12:15.509Z,98731.03
2023-03-04T00:14:20.304Z,98729.31
2023-03-04T00:16:27.366Z,98734.47
2023-03-04T00:18:35.128Z,98735.34
2023-03-04T00:20:39.916Z,98733.63
2023-03-04T00:22:44.699Z,98731.06
2023-03-04T00:24:52.253Z,98728.50
2023-03-04T00:26:57.024Z,98736.19
2023-03-04T00:29:01.857Z,98735.34
2023-03-04T00:31:06.880Z,98735.34
2023-03-04T00:33:11.736Z,98737.91
2023-03-04T00:35:16.494Z,98734.47
2023-03-04T00:37:21.460Z,98734.47
2023-03-04T00:39:26.252Z,98733.63
2023-03-04T00:41:33.689Z,98729.34
2023-03-04T00:43:38.535Z,98732.78
2023-03-04T00:45:43.399Z,98738.78
2023-03-04T00:47:48.190Z,98737.88
2023-03-04T00:49:52.989Z,98737.91
2023-03-04T00:51:57.863Z,98742.16
2023-03-04T00:54:02.687Z,98751.56
2023-03-04T00:56:08.209Z,98744.69
2023-03-04T00:58:18.008Z,98747.25
2023-03-04T01:00:23.671Z,98743.84
2023-03-04T01:02:29.065Z,98736.16
2023-03-04T01:04:33.882Z,98739.59
2023-03-04T01:06:38.676Z,98737.06
2023-03-04T01:08:44.421Z,98729.34
2023-03-04T01:10:49.356Z,98724.19
2023-03-04T01:12:54.166Z,98731.91
2023-03-04T01:15:01.764Z,98725.91
2023-03-04T01:17:06.674Z,98725.91
2023-03-04T01:19:11.442Z,98727.59
2023-03-04T01:21:16.810Z,98719.91
2023-03-04T01:23:21.626Z,98724.16
2023-03-04T01:25:26.552Z,98724.16
2023-03-04T01:27:31.470Z,98724.16
2023-03-04T01:29:36.226Z,98720.75
2023-03-04T01:31:43.626Z,98722.47
2023-03-04T01:33:48.405Z,98719.03
2023-03-04T01:35:53.254Z,98717.28
2023-03-04T01:37:58.248Z,98724.13
2023-03-04T01:40:03.007Z,98719.81
2023-03-04T01:42:07.905Z,98724.06
2023-03-04T01:44:13.897Z,98719.78
2023-03-04T01:46:18.863Z,98715.50
2023-03-04T01:48:29.603Z,98715.47
2023-03-04T01:50:36.810Z,98710.28
2023-03-04T01:52:43.282Z,98713.75
2023-03-04T01:54:48.080Z,98715.50
2023-03-04T01:56:55.136Z,98712.06
2023-03-04T01:59:11.977Z,98712.94
2023-03-04T02:01:17.259Z,98709.50
2023-03-04T02:03:23.013Z,98705.25
2023-03-04T02:05:31.557Z,98710.34
2023-03-04T02:07:36.617Z,98707.78
2023-03-04T02:09:41.436Z,98700.06
2023-03-04T02:11:49.246Z,98702.59
2023-03-04T02:13:55.085Z,98703.44
2023-03-04T02:15:59.934Z,98706.84
2023-03-04T02:18:05.275Z,98698.28
2023-03-04T02:20:21.201Z,98699.16
2023-03-04T02:22:28.708Z,98695.78
2023-03-04T02:24:38.968Z,98694.97
2023-03-04T02:26:47.680Z,98685.59
2023-03-04T02:28:55.096Z,98685.59
2023-03-04T02:31:00.260Z,98687.31
2023-03-04T02:33:05.152Z,98682.19
2023-03-04T02:35:21.716Z,98683.06
2023-03-04T02:37:26.674Z,98677.94
2023-03-04T02:39:36.358Z,98676.22
2023-03-04T02:41:44.421Z,98677.09
2023-03-04T02:43:56.882Z,98671.97
2023-03-04T02:46:04.296Z,98674.53
2023-03-04T02:48:10.251Z,98672.78
2023-03-04T02:50:15.530Z,98673.59
2023-03-04T02:52:22.658Z,98677.84
2023-03-04T02:54:27.865Z,98670.16
2023-03-04T02:56:33.636Z,98672.69
2023-03-04T02:58:38.492Z,98675.22
2023-03-04T03:00:46.460Z,98666.66
2023-03-04T03:02:51.585Z,98675.16
2023-03-04T03:04:56.806Z,98663.22
2023-03-04T03:07:04.156Z,98669.19
2023-03-04T03:09:10.237Z,98664.06
2023-03-04T03:11:15.170Z,98664.91
2023-03-04T03:13:19.996Z,98669.22
2023-03-04T03:15:25.067Z,98671.81
2023-03-04T03:17:34.831Z,98668.41
2023-03-04T03:19:39.611Z,98666.69
2023-03-04T03:21:46.028Z,98668.38
2023-03-04T03:23:50.865Z,98670.94
2023-03-04T03:25:55.655Z,98676.06
2023-03-04T03:28:00.410Z,98672.59
2023-03-04T03:30:05.397Z,98679.41
2023-03-04T03:32:10.606Z,98682.00
2023-03-04T03:34:19.212Z,98681.16
2023-03-04T03:36:25.680Z,98682.78
2023-03-04T03:38:30.654Z,98684.47
2023-03-04T03:40:35.673Z,98683.66
2023-03-04T03:42:40.435Z,98682.81
2023-03-04T03:44:45.344Z,98681.97
2023-03-04T03:46:50.172Z,98682.88
2023-03-04T03:48:54.977Z,98682.88
2023-03-04T03:51:02.371Z,98681.97
2023-03-04T03:53:07.325Z,98686.25
2023-03-04T03:55:13.001Z,98688.88
2023-03-04T03:57:17.852Z,98687.97
2023-03-04T03:59:24.195Z,98688.88
2023-03-04T04:01:29.017Z,98694.03
2023-03-04T04:03:33.898Z,98694.84
2023-03-04T04:05:38.694Z,98700.81
2023-03-04T04:07:46.101Z,98699.97
2023-03-04T04:09:50.864Z,98703.41
2023-03-04T04:11:55.703Z,98709.34
2023-03-04T04:14:00.515Z,98705.97
2023-03-04T04:16:05.571Z,98702.53
2023-03-04T04:18:10.476Z,98709.38
2023-03-04T04:20:15.713Z,98704.28
2023-03-04T04:22:21.774Z,98701.72
2023-03-04T04:24:29.312Z,98713.72
2023-03-04T04:26:34.108Z,98706.88
2023-03-04T04:28:39.050Z,98713.66
2023-03-04T04:30:44.124Z,98706.91
2023-03-04T04:32:48.945Z,98717.91
2023-03-04T04:34:53.715Z,98710.25
2023-03-04T04:36:59.034Z,98720.41
2023-03-04T04:39:03.592Z,98711.91
2023-03-04T04:41:22.687Z,98719.66
2023-03-04T04:43:27.748Z,98722.28
2023-03-04T04:45:34.708Z,98720.53
2023-03-04T04:47:39.863Z,98722.25
2023-03-04T04:49:44.737Z,98724.84
2023-03-04T04:51:49.515Z,98720.59
2023-03-04T04:53:54.362Z,98716.38
2023-03-04T04:55:59.150Z,98713.84
2023-03-04T04:58:08.825Z,98701.03
2023-03-04T05:00:16.015Z,98716.41
2023-03-04T05:02:21.061Z,98712.13
2023-03-04T05:04:25.907Z,98712.13
2023-03-04T05:06:30.847Z,98713.84
2023-03-04T05:08:38.984Z,98714.72
2023-03-04T05:10:43.754Z,98713.00
2023-03-04T05:12:49.897Z,98718.13
2023-03-04T05:14:57.317Z,98724.81
2023-03-04T05:17:02.181Z,98729.06
2023-03-04T05:19:06.986Z,98727.38
2023-03-04T05:21:12.466Z,98725.69
2023-03-04T05:23:17.258Z,98732.59
2023-03-04T05:25:22.061Z,98731.72
2023-03-04T05:27:26.923Z,98731.72
2023-03-04T05:29:31.706Z,98735.16
2023-03-04T05:31:39.283Z,98734.34
2023-03-04T05:33:44.188Z,98732.66
2023-03-04T05:35:50.612Z,98735.16
2023-03-04T05:37:55.466Z,98738.47
2023-03-04T05:40:00.269Z,98747.69
2023-03-04T05:42:05.304Z,98745.97
2023-03-04T05:44:09.958Z,98745.13
2023-03-04T05:46:16.959Z,98745.88
2023-03-04T05:48:24.741Z,98746.72
2023-03-04T05:50:29.805Z,98742.56
2023-03-04T05:52:34.629Z,98736.56
2023-03-04T05:54:39.528Z,98746.84
2023-03-04T05:56:44.660Z,98745.13
2023-03-04T05:58:49.840Z,98747.63
2023-03-04T06:00:54.625Z,98746.81
2023-03-04T06:02:59.443Z,98761.28
2023-03-04T06:05:07.258Z,98752.81
2023-03-04T06:07:12.046Z,98764.81
2023-03-04T06:09:17.065Z,98752.88
2023-03-04T06:11:21.871Z,98752.84
2023-03-04T06:13:26.914Z,98761.22
2023-03-04T06:15:32.381Z,98762.91
2023-03-04T06:17:37.297Z,98760.31
2023-03-04T06:19:42.069Z,98768.75
2023-03-04T06:21:49.484Z,98768.88
2023-03-04T06:23:54.258Z,98766.31
2023-03-04T06:26:00.627Z,98769.81
2023-03-04T06:28:05.428Z,98766.44
2023-03-04T06:30:12.652Z,98772.44
2023-03-04T06:32:17.460Z,98770.72
2023-03-04T06:34:22.476Z,98768.19
2023-03-04T06:36:27.437Z,98773.28
2023-03-04T06:38:34.873Z,98775.13
2023-03-04T06:40:39.731Z,98770.00
2023-03-04T06:42:45.039Z,98768.34
2023-03-04T06:44:51.462Z,98765.78
2023-03-04T06:46:56.594Z,98763.22
2023-03-04T06:49:01.980Z,98764.94
2023-03-04T06:51:10.533Z,98767.56
2023-03-04T06:53:16.273Z,98771.81
2023-03-04T06:55:23.902Z,98774.34
2023-03-04T06:57:28.735Z,98775.22
2023-03-04T06:59:33.976Z,98783.81
2023-03-04T07:01:38.488Z,98774.47
2023-03-04T07:03:43.377Z,98780.44
2023-03-04T07:05:48.378Z,98783.09
2023-03-04T07:07:53.412Z,98783.16
2023-03-04T07:09:58.114Z,98786.56
2023-03-04T07:12:06.181Z,98781.44
2023-03-04T07:14:10.947Z,98779.78
2023-03-04T07:16:18.160Z,98776.31
2023-03-04T07:18:23.008Z,98778.88
2023-03-04T07:20:29.566Z,98787.47
2023-03-04T07:22:36.902Z,98781.50
2023-03-04T07:24:41.716Z,98784.09
2023-03-04T07:26:46.462Z,98779.84
2023-03-04T07:28:54.730Z,98784.94
2023-03-04T07:30:59.510Z,98783.19
2023-03-04T07:33:04.289Z,98786.56
2023-03-04T07:35:10.328Z,98789.13
2023-03-04T07:37:15.229Z,98790.00
2023-03-04T07:39:20.052Z,98788.25
2023-03-04T07:41:26.634Z,98789.97
2023-03-04T07:43:31.487Z,98787.41
2023-03-04T07:45:39.914Z,98790.84
2023-03-04T07:47:45.142Z,98788.31
2023-03-04T07:49:49.945Z,98790.06
2023-03-04T07:51:54.747Z,98792.59
2023-03-04T07:54:01.400Z,98789.19
2023-03-04T07:56:06.845Z,98790.94
2023-03-04T07:58:11.630Z,98785.81
2023-03-04T08:00:19.422Z,98790.06
2023-03-04T08:02:26.940Z,98783.22
2023-03-04T08:04:31.862Z,98787.53
2023-03-04T08:06:36.936Z,98780.66
2023-03-04T08:08:43.070Z,98779.81
2023-03-04T08:10:48.408Z,98786.66
2023-03-04T08:12:52.937Z,98784.09
2023-03-04T08:14:57.797Z,98783.22
2023-03-04T08:17:02.661Z,98792.66
2023-03-04T08:19:10.862Z,98786.69
2023-03-04T08:21:16.220Z,98778.09
2023-03-04T08:23:21.600Z,98778.97
2023-03-04T08:25:26.380Z,98775.56
2023-03-04T08:27:33.506Z,98773.84
2023-03-04T08:29:38.240Z,98779.84
2023-03-04T08:31:46.846Z,98778.97
2023-03-04T08:33:53.527Z,98778.16
2023-03-04T08:36:00.955Z,98774.72
2023-03-04T08:38:05.764Z,98780.72
2023-03-04T08:40:12.206Z,98778.13
2023-03-04T08:42:17.020Z,98777.28
2023-03-04T08:44:22.004Z,98779.00
2023-03-04T08:46:26.853Z,98773.84
2023-03-04T08:48:31.678Z,98774.72
2023-03-04T08:50:37.026Z,98776.44
2023-03-04T08:52:44.433Z,98777.28
2023-03-04T08:54:50.300Z,98778.97
2023-03-04T08:56:55.109Z,98773.81
2023-03-04T08:59:00.046Z,98782.41
2023-03-04T09:01:05.755Z,98785.81
2023-03-04T09:03:10.690Z,98785.84
2023-03-04T09:05:18.230Z,98788.38
2023-03-04T09:07:23.049Z,98784.13
2023-03-04T09:09:30.717Z,98782.41
2023-03-04T09:11:38.314Z,98780.69
2023-03-04T09:13:43.626Z,98778.97
2023-03-04T09:15:49.310Z,98782.41
2023-03-04T09:17:54.233Z,98781.56
2023-03-04T09:19:58.972Z,98792.69
2023-03-04T09:22:03.817Z,98788.41
2023-03-04T09:24:09.101Z,98786.69
2023-03-04T09:26:24.258Z,98779.84
2023-03-04T09:28:29.167Z,98780.69
2023-03-04T09:30:34.185Z,98784.97
2023-03-04T09:32:39.414Z,98791.84
2023-03-04T09:34:44.098Z,98789.25
2023-03-04T09:36:48.916Z,98784.97
2023-03-04T09:38:53.896Z,98782.38
2023-03-04T09:41:10.624Z,98788.41
2023-03-04T09:43:23.538Z,98786.69
2023-03-04T09:45:33.159Z,98787.53
2023-03-04T09:47:40.228Z,98792.66
2023-03-04T09:49:48.544Z,98787.50
2023-03-04T09:52:03.792Z,98781.53
2023-03-04T09:54:10.754Z,98786.66
2023-03-04T09:56:17.261Z,98789.25
2023-03-04T09:58:36.483Z,98781.50
2023-03-04T10:00:44.358Z,98796.94
2023-03-04T10:03:02.765Z,98788.38
2023-03-04T10:05:10.803Z,98789.22
2023-03-04T10:07:21.609Z,98783.22
2023-03-04T10:09:32.531Z,98782.34
2023-03-04T10:11:43.706Z,98784.06
2023-03-04T10:14:05.688Z,98775.50
2023-03-04T10:16:18.469Z,98772.06
2023-03-04T10:18:27.007Z,98770.31
2023-03-04T10:20:41.847Z,98766.88
2023-03-04T10:22:48.833Z,98766.88
2023-03-04T10:25:00.668Z,98760.81
2023-03-04T10:27:10.409Z,98763.41
2023-03-04T10:29:19.840Z,98759.84
2023-03-04T10:31:35.254Z,98760.66
2023-03-04T10:33:42.174Z,98762.38
2023-03-04T10:35:51.284Z,98756.44
2023-03-04T10:37:56.555Z,98768.53
2023-03-04T10:40:04.185Z,98763.41
2023-03-04T10:42:25.500Z,98759.09
2023-03-04T10:44:34.719Z,98753.06
2023-03-04T10:46:41.466Z,98757.31
2023-03-04T10:48:46.724Z,98745.25
2023-03-04T10:50:51.323Z,98749.47
2023-03-04T10:52:57.699Z,98752.16
2023-03-04T10:55:05.325Z,98749.50
2023-03-04T10:57:19.146Z,98753.78
2023-03-04T10:59:41.893Z,98752.06
2023-03-04T11:01:46.750Z,98751.13
2023-03-04T11:03:52.269Z,98750.25
2023-03-04T11:06:09.354Z,98751.16
2023-03-04T11:08:22.362Z,98749.47
2023-03-04T11:10:31.636Z,98747.00
2023-03-04T11:12:37.798Z,98747.84
2023-03-04T11:14:49.697Z,98753.78
2023-03-04T11:16:59.821Z,98753.81
2023-03-04T11:19:09.149Z,98753.91
2023-03-04T11:21:20.433Z,98751.34
2023-03-04T11:23:35.134Z,98752.19
2023-03-04T11:25:44.906Z,98748.78
2023-03-04T11:27:55.378Z,98743.56
2023-03-04T11:30:16.249Z,98743.56
2023-03-04T11:32:24.348Z,98742.75
2023-03-04T11:34:40.324Z,98740.19
2023-03-04T11:36:57.674Z,98740.16
2023-03-04T11:39:04.768Z,98740.16
2023-03-04T11:41:16.804Z,98740.16
2023-03-04T11:43:27.486Z,98736.75
2023-03-04T11:45:47.188Z,98738.50
2023-03-04T11:48:03.347Z,98729.06
2023-03-04T11:50:32.697Z,98729.91
2023-03-04T11:52:56.133Z,98724.78
2023-03-04T11:55:15.077Z,98728.16
2023-03-04T11:57:33.575Z,98716.13
2023-03-04T11:59:59.590Z,98713.50
2023-03-04T12:02:25.274Z,98708.41
2023-03-04T12:04:47.168Z,98710.16
2023-03-04T12:07:06.818Z,98705.84
2023-03-04T12:09:35.382Z,98694.75
2023-03-04T12:11:51.526Z,98693.91
2023-03-04T12:14:16.485Z,98692.22
2023-03-04T12:16:41.208Z,98684.41
2023-03-04T12:19:01.451Z,98680.06
2023-03-04T12:21:28.331Z,98670.56
2023-03-04T12:23:48.177Z,98676.47
2023-03-04T12:26:00.554Z,98672.09
2023-03-04T12:28:23.644Z,98673.69
2023-03-04T12:30:41.338Z,98667.66
2023-03-04T12:32:55.418Z,98670.22
2023-03-04T12:35:26.064Z,98668.59
2023-03-04T12:37:47.374Z,98675.56
2023-03-04T12:40:08.773Z,98665.34
2023-03-04T12:42:24.151Z,98665.44
2023-03-04T12:44:29.510Z,98666.28
2023-03-04T12:46:45.107Z,98667.88
2023-03-04T12:49:03.118Z,98667.03
2023-03-04T12:51:28.257Z,98667.06
2023-03-04T12:53:40.827Z,98669.59
2023-03-04T12:55:48.048Z,98658.53
2023-03-04T12:57:53.558Z,98662.81
2023-03-04T13:00:02.966Z,98655.91
2023-03-04T13:02:30.455Z,98658.41
2023-03-04T13:04:47.085Z,98660.13
2023-03-04T13:07:12.905Z,98655.84
2023-03-04T13:09:25.406Z,98653.22
2023-03-04T13:11:47.346Z,98649.78
2023-03-04T13:14:05.808Z,98654.06
2023-03-04T13:16:34.992Z,98647.16
2023-03-04T13:18:41.034Z,98645.28
2023-03-04T13:20:46.050Z,98644.50
2023-03-04T13:22:56.983Z,98641.91
2023-03-04T13:25:05.279Z,98635.81
2023-03-04T13:27:40.090Z,98638.44
2023-03-04T13:29:44.991Z,98627.16
2023-03-04T13:32:07.212Z,98640.16
2023-03-04T13:34:49.085Z,98628.25
2023-03-04T13:36:59.773Z,98628.22
2023-03-04T13:39:07.201Z,98629.03
2023-03-04T13:41:17.451Z,98621.16
2023-03-04T13:43:41.449Z,98624.41
2023-03-04T13:45:46.328Z,98615.03
2023-03-04T13:47:53.739Z,98621.00
2023-03-04T13:50:29.990Z,98620.22
2023-03-04T13:52:44.421Z,98619.22
2023-03-04T13:54:49.216Z,98611.50
2023-03-04T13:57:18.743Z,98611.38
2023-03-04T13:59:32.976Z,98611.47
2023-03-04T14:01:50.817Z,98609.88
2023-03-04T14:03:58.837Z,98610.69
2023-03-04T14:06:19.924Z,98607.13
2023-03-04T14:08:28.525Z,98606.34
2023-03-04T14:10:33.359Z,98601.22
2023-03-04T14:12:40.317Z,98606.44
2023-03-04T14:14:50.517Z,98607.34
2023-03-04T14:16:59.041Z,98599.59
2023-03-04T14:19:09.564Z,98603.13
2023-03-04T14:21:17.121Z,98591.16
2023-03-04T14:23:28.374Z,98595.44
2023-03-04T14:25:36.666Z,98592.91
2023-03-04T14:27:41.837Z,98594.59
2023-03-04T14:29:46.644Z,98591.91
2023-03-04T14:31:51.731Z,98591.06
2023-03-04T14:34:00.048Z,98592.00
2023-03-04T14:36:08.356Z,98591.13
2023-03-04T14:38:23.796Z,98590.16
2023-03-04T14:40:32.937Z,98577.13
2023-03-04T14:42:45.083Z,98575.28
2023-03-04T14:44:52.607Z,98570.22
2023-03-04T14:47:07.993Z,98568.41
2023-03-04T14:49:16.323Z,98568.50
2023-03-04T14:51:39.316Z,98560.81
2023-03-04T14:53:56.913Z,98560.84
2023-03-04T14:56:04.586Z,98558.31
2023-03-04T14:58:11.125Z,98552.28
2023-03-04T15:00:30.659Z,98555.47
2023-03-04T15:02:42.018Z,98551.34
2023-03-04T15:04:47.344Z,98548.75
2023-03-04T15:06:56.581Z,98551.19
2023-03-04T15:09:04.179Z,98547.72
2023-03-04T15:11:10.680Z,98548.56
2023-03-04T15:13:17.221Z,98545.94
2023-03-04T15:15:38.235Z,98543.53
2023-03-04T15:17:45.362Z,98545.34
2023-03-04T15:20:01.489Z,98541.13
2023-03-04T15:22:10.724Z,98550.50
2023-03-04T15:24:16.356Z,98544.47
2023-03-04T15:26:21.305Z,98535.75
2023-03-04T15:28:27.683Z,98538.38
2023-03-04T15:30:34.482Z,98536.72
2023-03-04T15:32:39.336Z,98535.81
2023-03-04T15:34:44.225Z,98539.44
2023-03-04T15:36:51.603Z,98533.41
2023-03-04T15:38:59.160Z,98537.78
2023-03-04T15:41:03.977Z,98545.53
2023-03-04T15:43:10.161Z,98547.31
2023-03-04T15:45:24.151Z,98544.84
2023-03-04T15:47:29.036Z,98537.22
2023-03-04T15:49:33.846Z,98535.56
2023-03-04T15:51:39.087Z,98532.97
2023-03-04T15:53:45.181Z,98530.50
2023-03-04T15:55:52.651Z,98530.47
2023-03-04T15:58:00.249Z,98531.22
2023-03-04T16:00:05.270Z,98525.97
2023-03-04T16:02:23.212Z,98537.19
2023-03-04T16:04:28.264Z,98535.41
2023-03-04T16:06:38.197Z,98533.84
2023-03-04T16:08:44.723Z,98534.00
2023-03-04T16:10:53.138Z,98533.16
2023-03-04T16:12:57.954Z,98527.13
2023-03-04T16:15:05.029Z,98527.91
2023-03-04T16:17:12.397Z,98533.00
2023-03-04T16:19:17.165Z,98532.97
2023-03-04T16:21:24.772Z,98527.94
2023-03-04T16:23:29.658Z,98521.09
2023-03-04T16:25:34.708Z,98528.75
2023-03-04T16:27:42.911Z,98524.41
2023-03-04T16:29:47.834Z,98514.03
2023-03-04T16:31:52.638Z,98517.53
2023-03-04T16:33:57.526Z,98519.25
2023-03-04T16:36:04.126Z,98508.06
2023-03-04T16:38:16.115Z,98521.00
2023-03-04T16:40:23.534Z,98514.03
2023-03-04T16:42:28.334Z,98515.72
2023-03-04T16:44:37.563Z,98525.22
2023-03-04T16:46:42.799Z,98523.47
2023-03-04T16:48:47.373Z,98523.56
2023-03-04T16:50:52.451Z,98518.34
2023-03-04T16:52:59.082Z,98516.69
2023-03-04T16:55:03.931Z,98519.22
2023-03-04T16:57:09.311Z,98519.13
2023-03-04T16:59:18.697Z,98513.94
2023-03-04T17:01:27.706Z,98519.75
2023-03-04T17:03:32.770Z,98517.09
2023-03-04T17:05:37.604Z,98513.81
2023-03-04T17:07:42.442Z,98519.81
2023-03-04T17:09:47.876Z,98522.44
2023-03-04T17:11:53.206Z,98521.63
2023-03-04T17:13:57.747Z,98522.53
2023-03-04T17:16:04.354Z,98513.09
2023-03-04T17:18:12.026Z,98524.16
2023-03-04T17:20:18.528Z,98513.00
2023-03-04T17:22:23.698Z,98522.47
2023-03-04T17:24:29.613Z,98526.69
2023-03-04T17:26:34.864Z,98524.13
2023-03-04T17:28:39.937Z,98537.91
2023-03-04T17:30:44.761Z,98534.53
2023-03-04T17:32:49.664Z,98530.25
2023-03-04T17:34:57.223Z,98514.69
2023-03-04T17:37:02.516Z,98522.41
2023-03-04T17:39:07.272Z,98526.78
2023-03-04T17:41:16.157Z,98522.44
2023-03-04T17:43:21.754Z,98527.66
2023-03-04T17:45:26.651Z,98522.47
2023-03-04T17:47:36.072Z,98528.50
2023-03-04T17:49:41.007Z,98519.81
2023-03-04T17:51:48.400Z,98523.19
2023-03-04T17:53:53.171Z,98526.78
2023-03-04T17:56:00.189Z,98520.81
2023-03-04T17:58:04.980Z,98529.34
2023-03-04T18:00:11.470Z,98530.34
2023-03-04T18:02:17.528Z,98537.19
2023-03-04T18:04:22.435Z,98533.78
2023-03-04T18:06:27.724Z,98538.13
2023-03-04T18:08:37.238Z,98529.56
2023-03-04T18:10:42.106Z,98537.25
2023-03-04T18:12:47.499Z,98521.69
2023-03-04T18:14:54.361Z,98518.13
2023-03-04T18:16:59.225Z,98519.03
2023-03-04T18:19:04.809Z,98518.16
2023-03-04T18:21:09.956Z,98519.00
2023-03-04T18:23:14.780Z,98513.09
2023-03-04T18:25:22.409Z,98516.53
2023-03-04T18:27:27.953Z,98513.97
2023-03-04T18:29:34.276Z,98514.91
2023-03-04T18:31:39.486Z,98513.16
2023-03-04T18:33:44.065Z,98515.09
2023-03-04T18:35:48.892Z,98519.47
2023-03-04T18:37:53.916Z,98518.69
2023-03-04T18:39:58.721Z,98522.88
2023-03-04T18:42:06.441Z,98516.06
2023-03-04T18:44:11.740Z,98522.09
2023-03-04T18:46:29.617Z,98513.53
2023-03-04T18:48:38.999Z,98518.69
2023-03-04T18:50:43.877Z,98516.91
2023-03-04T18:52:49.205Z,98517.75
2023-03-04T18:54:54.034Z,98517.78
2023-03-04T18:57:02.773Z,98517.00
2023-03-04T18:59:16.141Z,98513.59
2023-03-04T19:01:23.132Z,98510.91
2023-03-04T19:03:28.308Z,98515.16
2023-03-04T19:05:38.261Z,98511.78
2023-03-04T19:07:43.396Z,98507.50
2023-03-04T19:09:48.228Z,98516.09
2023-03-04T19:11:53.158Z,98505.88
2023-03-04T19:13:58.168Z,98505.88
2023-03-04T19:16:05.716Z,98510.09
2023-03-04T19:18:10.719Z,98504.16
2023-03-04T19:20:17.520Z,98508.38
2023-03-04T19:22:22.320Z,98504.97
2023-03-04T19:24:27.151Z,98503.22
2023-03-04T19:26:32.036Z,98497.19
2023-03-04T19:28:37.035Z,98508.31
2023-03-04T19:30:42.861Z,98504.97
2023-03-04T19:32:50.368Z,98495.56
2023-03-04T19:34:55.119Z,98495.56
2023-03-04T19:37:00.001Z,98494.72
2023-03-04T19:39:04.841Z,98498.16
2023-03-04T19:41:13.864Z,98499.09
2023-03-04T19:43:18.880Z,98500.84
2023-03-04T19:45:23.801Z,98492.25
2023-03-04T19:47:28.753Z,98489.63
2023-03-04T19:49:37.201Z,98492.22
2023-03-04T19:51:42.283Z,98494.78
2023-03-04T19:53:47.722Z,98488.78
2023-03-04T19:55:53.862Z,98491.38
2023-03-04T19:57:58.793Z,98487.03
2023-03-04T20:00:07.431Z,98485.28
2023-03-04T20:02:12.280Z,98487.00
2023-03-04T20:04:19.807Z,98492.91
2023-03-04T20:06:28.143Z,98489.44
2023-03-04T20:08:32.942Z,98492.00
2023-03-04T20:10:41.100Z,98490.22
2023-03-04T20:12:45.886Z,98490.19
2023-03-04T20:14:51.268Z,98486.75
2023-03-04T20:16:56.246Z,98485.78
2023-03-04T20:19:01.662Z,98493.53
2023-03-04T20:21:07.353Z,98491.00
2023-03-04T20:23:20.228Z,98490.94
2023-03-04T20:25:25.369Z,98492.69
2023-03-04T20:27:30.185Z,98503.00
2023-03-04T20:29:34.974Z,98492.69
2023-03-04T20:31:41.044Z,98489.22
2023-03-04T20:33:47.716Z,98486.63
2023-03-04T20:35:52.641Z,98484.94
2023-03-04T20:37:57.493Z,98485.78
2023-03-04T20:40:04.941Z,98489.16
2023-03-04T20:42:09.733Z,98489.88
2023-03-04T20:44:14.586Z,98494.13
2023-03-04T20:46:34.653Z,98485.63
2023-03-04T20:48:39.585Z,98482.19
2023-03-04T20:50:44.624Z,98485.44
2023-03-04T20:52:49.454Z,98487.09
2023-03-04T20:54:54.303Z,98495.91
2023-03-04T20:57:01.825Z,98498.41
2023-03-04T20:59:08.916Z,98507.81
2023-03-04T21:01:13.915Z,98502.66
2023-03-04T21:03:19.326Z,98497.47
2023-03-04T21:05:24.110Z,98496.56
2023-03-04T21:07:29.055Z,98492.47
2023-03-04T21:09:33.957Z,98495.94
2023-03-04T21:11:40.828Z,98493.25
2023-03-04T21:13:53.991Z,98494.13
2023-03-04T21:15:59.742Z,98487.09
2023-03-04T21:18:04.567Z,98486.97
2023-03-04T21:20:10.968Z,98486.84
2023-03-04T21:22:18.752Z,98489.28
2023-03-04T21:24:25.619Z,98490.09
2023-03-04T21:26:30.491Z,98484.88
2023-03-04T21:28:35.552Z,98477.25
2023-03-04T21:30:43.286Z,98482.31
2023-03-04T21:32:48.219Z,98478.97
2023-03-04T21:34:53.672Z,98484.25
2023-03-04T21:36:58.558Z,98484.31
2023-03-04T21:39:03.297Z,98482.53
2023-03-04T21:41:08.211Z,98478.31
2023-03-04T21:43:13.041Z,98475.78
2023-03-04T21:45:17.875Z,98472.41
2023-03-04T21:47:25.513Z,98470.75
2023-03-04T21:49:31.038Z,98477.53
2023-03-04T21:51:36.246Z,98470.78
2023-03-04T21:53:41.137Z,98467.41
2023-03-04T21:55:45.903Z,98475.22
2023-03-04T21:57:50.970Z,98475.34
2023-03-04T21:59:55.751Z,98467.56
2023-03-04T22:02:00.614Z,98459.13
2023-03-04T22:04:08.333Z,98472.09
2023-03-04T22:06:15.026Z,98479.13
2023-03-04T22:08:22.638Z,98464.56
2023-03-04T22:10:27.587Z,98461.06
2023-03-04T22:12:32.681Z,98465.31
2023-03-04T22:14:37.472Z,98474.78
2023-03-04T22:16:59.035Z,98469.59
2023-03-04T22:19:03.929Z,98471.44
2023-03-04T22:21:13.537Z,98470.56
2023-03-04T22:23:20.997Z,98464.53
2023-03-04T22:25:25.801Z,98462.75
2023-03-04T22:27:30.789Z,98464.44
2023-03-04T22:29:38.401Z,98467.91
2023-03-04T22:31:43.225Z,98469.53
2023-03-04T22:33:48.700Z,98459.25
2023-03-04T22:35:53.686Z,98460.03
2023-03-04T22:38:01.073Z,98465.22
2023-03-04T22:40:06.318Z,98452.25
2023-03-04T22:42:11.600Z,98456.66
2023-03-04T22:44:16.682Z,98458.56
2023-03-04T22:46:24.694Z,98463.72
2023-03-04T22:48:30.035Z,98457.69
2023-03-04T22:50:34.744Z,98451.66
2023-03-04T22:52:41.264Z,98456.88
2023-03-04T22:54:48.619Z,98458.56
2023-03-04T22:56:53.422Z,98461.97
2023-03-04T22:58:58.251Z,98449.13
2023-03-04T23:01:03.265Z,98453.47
2023-03-04T23:03:08.721Z,98454.41
2023-03-04T23:05:14.529Z,98455.31
2023-03-04T23:07:19.506Z,98457.84
2023-03-04T23:09:24.291Z,98457.84
2023-03-04T23:11:35.394Z,98454.38
2023-03-04T23:13:40.562Z,98445.00
2023-03-04T23:15:45.829Z,98447.50
2023-03-04T23:17:50.649Z,98451.78
2023-03-04T23:19:55.969Z,98444.06
2023-03-04T23:22:02.525Z,98442.41
2023-03-04T23:24:09.558Z,98445.84
2023-03-04T23:26:18.639Z,98444.06
2023-03-04T23:28:26.028Z,98445.88
2023-03-04T23:30:30.904Z,98449.25
2023-03-04T23:32:35.913Z,98450.16
2023-03-04T23:34:40.783Z,98457.06
2023-03-04T23:36:45.829Z,98451.13
2023-03-04T23:38:51.121Z,98452.84
2023-03-04T23:40:55.935Z,98459.72
2023-03-04T23:43:00.775Z,98450.25
2023-03-04T23:45:09.801Z,98451.97
2023-03-04T23:47:14.591Z,98452.03
2023-03-04T23:49:19.440Z,98447.69
2023-03-04T23:51:26.622Z,98450.22
2023-03-04T23:53:33.882Z,98446.78
2023-03-04T23:55:38.718Z,98445.94
2023-03-04T23:57:43.455Z,98443.38
2023-03-04T23:59:48.232Z,98445.13
